Airfield :
LOGIN :

Register | Disclaimer

   EN    FR    IT 

 










Legend :    VFR   Marginal VFR   IFR   Intensive IFR   Very Intensive IFR
Visi :
Ceiling :
>= 8 km
>= 3000ft
5 to 8 km
1000 to 3000 ft
1500m to 5 km
500 to 1000 ft
800 to 1500m
200 to 500 ft
< 800m
< 200 ft
Symbols :   Thunderstorms  Fog  Heavy snow  Heavy precipitations  Wind > 20 kt
SIGMETs :     Misc.  Thunderstorms  Icing  Turbulence  Mountain Waves  Volcanic Ashes







- Airport Elevation : 525 ft
- IATA code : VAF
- Download approach charts


LFLU - Valence

CURRENT METAR :
  • 201700Z AUTO 18002KT 9999 BKN046 OVC052 05/03 Q1002

EXPIRED METARs :
  • 201630Z AUTO 18002KT 9999 SCT045 OVC054 05/03 Q1002
  • 201600Z AUTO 17005KT 9999 BKN045 OVC058 05/03 Q1002
  • 201530Z AUTO 17007KT 9999 BKN045 OVC060 05/03 Q1002
  • 201500Z AUTO 17006KT 9999 OVC047 05/03 Q1002
  • 201430Z AUTO 14005KT 9999 OVC050 05/03 Q1001

TAF N/A
No reported NOTAMs for that airfield.
2 SIGMETs reported for the Marseille FIR (LFMM) :
 
Embedded thunderstorms
LFMM SIGMET 2 VALID 201700/201900 LFPW
LFMM MARSEILLE FIR/UIR EMBD TS OBS AT 1700Z WI N4100 E00430 - N4130 E00430 - N4200 E00530 - N4115 E00545 - N4100 E00430 TOP FL320 MOV NE 30KT NC=
Embedded thunderstorms
LFMM SIGMET 1 VALID 201545/201700 LFPW
LFMM MARSEILLE FIR/UIR EMBD TS OBS AT 1545Z WI N4100 E00430 - N4145 E00430 - N4200 E00515 - N4045 E00600 - N4045 E00515 - N4100 E00430 TOP FL320 MOV E 30KT INTSF=



MET'MAP, your aeronautical weather chart ! - Copyright ORBIFLY December 2007 - Disclaimer

ORBIFLY MET'MAP TEAM :

Programming & Development : Alexandra Zaïnal
Concept & Development : Baudouin d'Aumeries
Co-Development & Prog : Marc-Olivier Méhu
Technical & hardware support : Manuel Goepfert

Contact : metmap@orbifly.com




SOURCES & CREDITS :

   NOAA